Time;durP1;ratioP1;P1;durP2;ratioP2;P2;SDS_P1;SDS_P2;PMS_P1;PMS_P2;Temp;Humidity;BMP_temperature;BMP_pressure;BME280_temperature;BME280_humidity;BME280_pressure;Samples;Min_cycle;Max_cycle;Signal;HPM_P1;HPM_P2
2022/05/17 04:04:13;;;;;;;7.53;5.37;;;13.10;99.90;;;;;;5849462;23;20186;31
2022/05/17 04:06:42;;;;;;;10.60;5.90;;;13.10;99.90;;;;;;4827604;29;20272;-77
2022/05/17 04:09:10;;;;;;;11.00;5.83;;;13.10;99.90;;;;;;4835046;29;20219;-78
2022/05/17 04:11:38;;;;;;;11.80;6.20;;;13.10;99.90;;;;;;4826192;29;20229;-78
2022/05/17 04:14:07;;;;;;;7.60;5.47;;;13.10;99.90;;;;;;4825338;29;20244;-73
2022/05/17 04:16:37;;;;;;;9.47;5.80;;;13.10;99.90;;;;;;4825405;29;20299;-79
2022/05/17 04:19:09;;;;;;;9.87;6.13;;;13.10;99.90;;;;;;4825698;29;20331;-76
2022/05/17 04:21:39;;;;;;;11.27;5.90;;;13.10;99.90;;;;;;4824908;29;20244;-77
2022/05/17 04:24:07;;;;;;;8.80;5.77;;;13.10;99.90;;;;;;4841813;29;20243;-77
2022/05/17 04:26:35;;;;;;;8.80;5.97;;;13.10;99.90;;;;;;4844437;29;20322;-73
2022/05/17 04:29:04;;;;;;;18.33;5.87;;;13.20;99.90;;;;;;4843316;29;20672;-77
2022/05/17 04:31:33;;;;;;;9.03;5.53;;;13.20;99.90;;;;;;4838934;29;20262;-77
2022/05/17 04:34:01;;;;;;;6.20;5.27;;;13.30;99.90;;;;;;4825524;29;20219;-73
2022/05/17 04:36:30;;;;;;;7.70;5.57;;;13.30;99.90;;;;;;4825033;29;20258;-74
2022/05/17 04:38:59;;;;;;;8.30;5.63;;;13.40;99.90;;;;;;4824922;29;20254;-78
2022/05/17 04:41:27;;;;;;;9.83;5.60;;;13.50;99.90;;;;;;4825101;29;20212;-78
2022/05/17 04:43:56;;;;;;;8.90;5.13;;;13.60;99.90;;;;;;4824936;29;20224;-79
2022/05/17 04:46:24;;;;;;;9.40;5.27;;;13.70;99.90;;;;;;4824647;29;20236;-79
2022/05/17 04:48:52;;;;;;;10.83;5.83;;;13.80;99.90;;;;;;4824720;29;20227;-77
2022/05/17 04:51:20;;;;;;;8.53;4.90;;;13.80;99.90;;;;;;4824418;29;20316;-77
2022/05/17 04:53:48;;;;;;;7.97;5.10;;;13.90;99.90;;;;;;4824632;29;20261;-75
2022/05/17 04:56:19;;;;;;;7.53;5.33;;;14.00;99.90;;;;;;4824941;29;20559;-76
2022/05/17 04:58:47;;;;;;;8.60;5.20;;;14.00;99.90;;;;;;4824617;29;20258;-79
2022/05/17 05:01:15;;;;;;;8.23;5.17;;;14.10;99.90;;;;;;4823202;29;20277;-77
2022/05/17 05:03:43;;;;;;;7.57;5.10;;;14.10;99.90;;;;;;4823085;29;20232;-76
2022/05/17 05:06:11;;;;;;;9.53;4.97;;;14.20;99.90;;;;;;4825955;29;20251;-77
2022/05/17 05:08:41;;;;;;;8.43;5.23;;;14.20;99.90;;;;;;4831078;29;20216;-79
2022/05/17 05:11:09;;;;;;;9.37;5.70;;;14.30;99.90;;;;;;4824271;29;20414;-78
2022/05/17 05:13:38;;;;;;;10.97;5.20;;;14.40;99.90;;;;;;4824955;29;20550;-76
2022/05/17 05:16:11;;;;;;;8.60;4.80;;;14.50;99.90;;;;;;4825073;29;20239;-78
2022/05/17 05:18:40;;;;;;;8.47;4.97;;;14.70;99.90;;;;;;4836393;29;20284;-79
2022/05/17 05:21:11;;;;;;;6.77;4.83;;;14.70;99.90;;;;;;4844163;29;20243;-75
2022/05/17 05:23:41;;;;;;;7.63;5.07;;;14.90;99.90;;;;;;4843680;29;20286;-73
2022/05/17 05:26:11;;;;;;;7.30;5.07;;;15.00;99.90;;;;;;4843181;29;20258;-74
2022/05/17 05:28:42;;;;;;;7.87;5.03;;;15.20;99.90;;;;;;4842954;29;20291;-77
2022/05/17 05:31:17;;;;;;;8.93;5.40;;;15.30;99.90;;;;;;4833521;29;20228;-77
2022/05/17 05:33:46;;;;;;;7.93;4.63;;;15.40;99.90;;;;;;4843631;29;20329;-78
2022/05/17 05:36:15;;;;;;;8.97;5.03;;;15.60;99.90;;;;;;4849220;29;20302;-73
2022/05/17 05:38:43;;;;;;;8.77;4.90;;;15.80;99.90;;;;;;4845174;29;20246;-76
2022/05/17 05:41:12;;;;;;;8.37;4.67;;;16.00;99.90;;;;;;4842794;29;20268;-77
2022/05/17 05:43:42;;;;;;;6.93;4.97;;;16.10;99.90;;;;;;4842399;29;20215;-74
2022/05/17 05:46:10;;;;;;;8.20;4.70;;;16.10;99.90;;;;;;4838785;29;20816;-78
2022/05/17 05:48:38;;;;;;;8.37;4.83;;;16.20;99.90;;;;;;4823159;29;20248;-78
2022/05/17 05:51:06;;;;;;;7.83;4.53;;;16.10;99.90;;;;;;4823289;29;20327;-77
2022/05/17 05:53:35;;;;;;;6.90;4.97;;;16.10;99.90;;;;;;4824675;29;20243;-78
2022/05/17 05:56:03;;;;;;;8.07;4.93;;;16.00;99.90;;;;;;4822825;29;20297;-78
2022/05/17 05:58:32;;;;;;;7.97;5.40;;;16.00;99.90;;;;;;4828334;29;20301;-76
2022/05/17 06:01:01;;;;;;;7.40;5.07;;;16.00;99.90;;;;;;4842303;29;20290;-79
2022/05/17 06:03:30;;;;;;;7.67;5.17;;;16.00;99.90;;;;;;4842800;29;20247;-77
2022/05/17 06:05:58;;;;;;;8.90;5.23;;;15.90;99.90;;;;;;4842371;29;20265;-79
2022/05/17 06:08:26;;;;;;;8.63;5.27;;;15.90;99.90;;;;;;4841936;29;20223;-78
2022/05/17 06:10:54;;;;;;;10.37;5.57;;;16.00;99.90;;;;;;4831242;29;20587;-80
2022/05/17 06:13:22;;;;;;;11.17;7.10;;;16.00;99.90;;;;;;4840193;29;20215;-79
2022/05/17 06:15:52;;;;;;;8.67;6.83;;;16.00;99.90;;;;;;4841892;29;20787;-77
2022/05/17 06:18:23;;;;;;;10.33;5.53;;;16.10;99.90;;;;;;4841297;29;20223;-78
2022/05/17 06:20:53;;;;;;;9.57;5.30;;;16.10;99.90;;;;;;4841385;29;20643;-78
2022/05/17 06:23:23;;;;;;;9.83;5.70;;;16.20;99.90;;;;;;4842477;29;20215;-78
2022/05/17 06:25:51;;;;;;;9.17;5.30;;;16.10;99.90;;;;;;4842648;29;20268;-75
2022/05/17 06:28:19;;;;;;;10.50;5.90;;;16.00;99.90;;;;;;4843755;29;20259;-78
2022/05/17 06:30:51;;;;;;;10.17;5.33;;;16.20;99.90;;;;;;4845883;29;20236;-78
2022/05/17 06:33:20;;;;;;;6.50;4.33;;;17.20;99.90;;;;;;4847957;29;20238;-77
2022/05/17 06:35:50;;;;;;;6.90;4.50;;;18.90;99.90;;;;;;4847170;29;20231;-78
2022/05/17 06:38:18;;;;;;;9.37;4.17;;;20.90;99.90;;;;;;4846095;29;20231;-77
2022/05/17 06:40:46;;;;;;;8.83;4.20;;;22.60;99.90;;;;;;4844752;29;20244;-78
2022/05/17 06:43:15;;;;;;;7.93;4.40;;;23.90;99.90;;;;;;4845299;29;20671;-75
2022/05/17 06:45:44;;;;;;;7.83;4.07;;;24.90;99.90;;;;;;4839899;29;20228;-76
2022/05/17 06:48:12;;;;;;;4.82;3.78;;;25.50;99.90;;;;;;4823346;29;20251;-77
2022/05/17 06:50:40;;;;;;;7.55;4.00;;;26.70;99.90;;;;;;4824119;29;20213;-75
2022/05/17 06:53:10;;;;;;;8.68;4.18;;;26.90;99.90;;;;;;4823404;29;20691;-78
2022/05/17 06:55:39;;;;;;;9.73;3.70;;;27.10;99.90;;;;;;4823138;29;20584;-74
2022/05/17 06:58:08;;;;;;;9.35;4.10;;;27.50;99.90;;;;;;4823099;29;20234;-75
2022/05/17 07:00:36;;;;;;;6.47;4.13;;;27.20;99.80;;;;;;4823267;29;20701;-76
2022/05/17 07:03:04;;;;;;;7.07;4.00;;;27.30;99.50;;;;;;4822892;29;20635;-76
2022/05/17 07:05:32;;;;;;;8.63;3.88;;;27.60;98.40;;;;;;4807085;29;20302;-79
2022/05/17 07:08:02;;;;;;;6.38;3.70;;;28.60;97.20;;;;;;4803720;29;20264;-76
2022/05/17 07:13:17;;;;;;;6.65;3.90;;;29.20;95.10;;;;;;4804746;29;20244;-76
2022/05/17 07:15:48;;;;;;;9.40;3.95;;;29.00;94.40;;;;;;4803852;29;20225;-75
2022/05/17 07:18:22;;;;;;;8.13;4.22;;;28.90;94.50;;;;;;4804240;29;20616;-77
2022/05/17 07:20:50;;;;;;;8.68;3.97;;;28.30;94.50;;;;;;4803903;29;20743;-74
2022/05/17 07:23:19;;;;;;;10.45;4.00;;;28.10;94.80;;;;;;4804268;29;20364;-77
2022/05/17 07:25:48;;;;;;;7.70;4.13;;;28.20;95.10;;;;;;4803843;29;20256;-76
2022/05/17 07:28:19;;;;;;;6.05;4.05;;;28.10;95.10;;;;;;4804361;29;20303;-75
2022/05/17 07:30:48;;;;;;;7.38;4.40;;;28.10;95.20;;;;;;4804075;29;20648;-77
2022/05/17 07:33:16;;;;;;;6.07;3.88;;;27.60;95.10;;;;;;4804033;29;20205;-76
2022/05/17 07:35:44;;;;;;;8.85;4.03;;;27.30;95.90;;;;;;4804341;29;20255;-77
2022/05/17 07:38:13;;;;;;;6.28;4.47;;;28.00;95.50;;;;;;4804528;29;20243;-77
2022/05/17 07:40:43;;;;;;;6.43;4.70;;;27.90;94.90;;;;;;4808945;29;20212;-76
2022/05/17 07:43:13;;;;;;;8.77;4.43;;;28.10;94.90;;;;;;4822031;29;20312;-76
2022/05/17 07:45:41;;;;;;;7.43;4.80;;;27.60;94.70;;;;;;4822105;29;20223;-76
2022/05/17 07:48:09;;;;;;;8.55;4.85;;;27.80;96.20;;;;;;4822663;29;20604;-76
2022/05/17 07:50:38;;;;;;;9.07;5.28;;;27.40;95.80;;;;;;4821996;29;20306;-77
2022/05/17 07:53:08;;;;;;;8.25;5.68;;;26.50;97.40;;;;;;4822305;29;20224;-76
2022/05/17 07:55:38;;;;;;;8.18;5.72;;;25.50;99.40;;;;;;4805422;29;20319;-80
2022/05/17 07:58:07;;;;;;;7.50;5.60;;;24.30;99.90;;;;;;4804341;29;20236;-78
2022/05/17 08:00:37;;;;;;;7.80;5.57;;;23.90;99.90;;;;;;4804002;29;20306;-78
2022/05/17 08:03:06;;;;;;;8.23;5.30;;;23.60;99.90;;;;;;4804041;29;20789;-77
2022/05/17 08:05:35;;;;;;;7.27;5.00;;;23.70;99.90;;;;;;4803908;29;20305;-78
2022/05/17 08:08:04;;;;;;;7.67;5.57;;;23.40;99.90;;;;;;4803859;29;20291;-78
2022/05/17 08:10:32;;;;;;;6.97;4.90;;;22.70;99.90;;;;;;4804114;29;20217;-78
2022/05/17 08:13:00;;;;;;;9.83;6.47;;;22.70;99.90;;;;;;4804107;29;20221;-76
2022/05/17 08:15:30;;;;;;;8.03;5.87;;;22.60;99.90;;;;;;4804022;29;20278;-76
2022/05/17 08:18:02;;;;;;;9.83;5.90;;;22.80;99.90;;;;;;4804598;29;20201;-77
2022/05/17 08:20:32;;;;;;;7.97;5.90;;;23.00;99.90;;;;;;4807066;29;20244;-78
2022/05/17 08:23:01;;;;;;;8.70;5.60;;;22.40;99.90;;;;;;4807783;29;20221;-78
2022/05/17 08:28:15;;;;;;;6.27;4.90;;;23.60;99.90;;;;;;4808264;29;20248;-78
2022/05/17 08:30:44;;;;;;;8.60;4.97;;;24.80;99.90;;;;;;4807342;29;20216;-76
2022/05/17 08:33:16;;;;;;;13.20;5.57;;;25.20;99.90;;;;;;4807568;29;20282;-75
2022/05/17 08:35:49;;;;;;;9.95;5.57;;;25.70;99.90;;;;;;4807473;29;20239;-77
2022/05/17 08:38:21;;;;;;;8.00;5.07;;;26.60;98.50;;;;;;4807142;29;20194;-75
2022/05/17 08:41:00;;;;;;;7.10;5.10;;;27.20;97.40;;;;;;4806843;29;20298;-76
2022/05/17 08:43:36;;;;;;;7.28;5.28;;;28.50;95.50;;;;;;4806862;29;20236;-77
2022/05/17 08:46:34;;;;;;;8.35;5.10;;;29.20;94.90;;;;;;4806678;29;20521;-76
2022/05/17 08:49:16;;;;;;;9.63;4.70;;;29.10;92.00;;;;;;4804637;29;20217;-76
2022/05/17 08:51:48;;;;;;;8.68;4.50;;;29.00;92.80;;;;;;4806810;29;20315;-77
2022/05/17 08:54:19;;;;;;;7.95;4.32;;;29.50;92.50;;;;;;4823724;29;20242;-77
2022/05/17 08:56:51;;;;;;;6.30;4.22;;;29.70;89.40;;;;;;4824933;29;20201;-75
2022/05/17 08:59:22;;;;;;;7.38;4.50;;;28.40;91.30;;;;;;4824478;29;20236;-78
2022/05/17 09:02:00;;;;;;;6.00;4.13;;;28.00;92.60;;;;;;4824788;29;20212;-78
2022/05/17 09:05:04;;;;;;;7.40;4.10;;;28.30;90.70;;;;;;4824527;29;20227;-75
2022/05/17 09:07:40;;;;;;;8.00;4.57;;;28.30;91.70;;;;;;4817961;29;20319;-80
2022/05/17 09:10:18;;;;;;;11.38;4.82;;;29.20;91.70;;;;;;4825298;29;20196;-76
2022/05/17 09:12:51;;;;;;;9.63;5.28;;;29.40;89.00;;;;;;4825613;29;20216;-77
2022/05/17 09:15:19;;;;;;;7.20;5.30;;;30.20;90.20;;;;;;4824609;29;20239;-77
2022/05/17 09:17:48;;;;;;;6.45;4.18;;;30.50;87.90;;;;;;4824611;29;20269;-76
2022/05/17 09:20:20;;;;;;;8.82;3.38;;;30.10;85.80;;;;;;4824144;29;20740;-76
2022/05/17 09:22:51;;;;;;;7.10;4.40;;;30.40;88.40;;;;;;4824601;29;20233;-77
2022/05/17 09:25:22;;;;;;;6.93;4.10;;;30.30;80.90;;;;;;4824331;29;20216;-79
2022/05/17 09:27:53;;;;;;;8.68;4.28;;;29.20;82.80;;;;;;4825182;29;20203;-75
2022/05/17 09:30:35;;;;;;;10.30;4.43;;;28.80;87.90;;;;;;4824478;29;20266;-77
2022/05/17 09:33:09;;;;;;;8.80;4.93;;;29.00;87.50;;;;;;4825817;29;20303;-82
2022/05/17 09:35:55;;;;;;;6.50;3.70;;;29.50;89.10;;;;;;4825234;29;20284;-77
2022/05/17 09:38:23;;;;;;;7.30;3.80;;;30.10;85.30;;;;;;4824766;29;20265;-77
2022/05/17 09:40:52;;;;;;;7.28;2.80;;;29.90;87.10;;;;;;4823755;29;20303;-77
2022/05/17 09:43:36;;;;;;;5.78;2.55;;;30.80;80.50;;;;;;4824144;29;20412;-78
2022/05/17 09:46:10;;;;;;;7.75;2.90;;;30.00;80.10;;;;;;4824437;29;20231;-75
2022/05/17 09:54:28;;;;;;;7.45;3.10;;;28.50;82.80;;;;;;4823805;29;20216;-77
2022/05/17 09:57:12;;;;;;;7.40;3.33;;;27.90;86.90;;;;;;4825458;29;20263;-76
2022/05/17 09:59:40;;;;;;;6.50;2.92;;;27.40;88.60;;;;;;4824766;29;20247;-77
2022/05/17 10:02:35;;;;;;;6.40;3.35;;;26.90;88.00;;;;;;4825558;29;20323;-78
2022/05/17 10:05:16;;;;;;;5.13;2.83;;;26.10;89.80;;;;;;4827469;29;20228;-77
2022/05/17 10:07:56;;;;;;;7.78;2.80;;;25.90;89.20;;;;;;4825679;29;20200;-75
2022/05/17 10:10:30;;;;;;;5.43;3.03;;;25.60;90.80;;;;;;4825879;29;20196;-76
2022/05/17 10:13:05;;;;;;;8.68;3.00;;;26.30;91.60;;;;;;4825916;29;20299;-77
2022/05/17 10:15:37;;;;;;;6.43;3.00;;;27.40;90.90;;;;;;4824053;29;20742;-76
2022/05/17 10:18:15;;;;;;;7.88;2.60;;;28.30;88.10;;;;;;4823906;29;20270;-79
2022/05/17 10:20:47;;;;;;;6.22;2.83;;;29.10;82.40;;;;;;4823223;29;20239;-79
2022/05/17 10:23:28;;;;;;;7.80;2.92;;;29.50;82.30;;;;;;4823918;29;20201;-76
2022/05/17 10:26:03;;;;;;;6.40;2.95;;;29.80;81.70;;;;;;4823749;29;20212;-75
2022/05/17 10:28:42;;;;;;;7.32;3.17;;;29.80;84.20;;;;;;4824008;29;20763;-77
2022/05/17 10:31:19;;;;;;;6.97;3.40;;;29.90;81.50;;;;;;4824032;29;20310;-77
2022/05/17 10:34:00;;;;;;;6.55;3.13;;;29.70;80.20;;;;;;4831548;29;20200;-78
2022/05/17 10:36:35;;;;;;;7.07;3.00;;;29.70;81.80;;;;;;4824050;29;20224;-75
2022/05/17 10:39:13;;;;;;;19.40;3.75;;;29.30;80.00;;;;;;4823474;29;20219;-78
2022/05/17 10:41:41;;;;;;;6.45;3.20;;;29.10;83.80;;;;;;4823769;29;20206;-77
2022/05/17 10:44:13;;;;;;;6.25;3.33;;;28.30;82.20;;;;;;4824729;29;20307;-77
2022/05/17 10:46:48;;;;;;;5.88;2.83;;;27.70;83.50;;;;;;4823632;29;20300;-78
2022/05/17 10:49:27;;;;;;;5.95;3.22;;;28.10;86.80;;;;;;4823387;29;20200;-78
2022/05/17 10:52:04;;;;;;;10.02;3.50;;;28.70;85.10;;;;;;4823189;29;20323;-78
2022/05/17 10:54:48;;;;;;;7.97;3.80;;;29.40;80.50;;;;;;4823203;29;20326;-76
2022/05/17 10:57:25;;;;;;;5.93;3.70;;;29.60;78.60;;;;;;4823183;29;20307;-76
2022/05/17 11:00:01;;;;;;;7.05;3.72;;;28.90;79.80;;;;;;4823379;29;20237;-75
2022/05/17 11:02:50;;;;;;;6.63;3.60;;;27.30;84.40;;;;;;4823271;29;20273;-78
2022/05/17 11:05:29;;;;;;;6.00;3.40;;;26.40;87.30;;;;;;4823166;29;20655;-78
2022/05/17 11:08:08;;;;;;;8.23;3.50;;;26.60;87.80;;;;;;4822964;29;20243;-77
2022/05/17 11:10:47;;;;;;;7.85;3.70;;;27.40;86.80;;;;;;4823001;29;20647;-75
2022/05/17 11:13:22;;;;;;;6.90;3.88;;;27.40;89.60;;;;;;4822943;29;20227;-76
2022/05/17 11:15:57;;;;;;;5.68;3.20;;;26.80;85.10;;;;;;4823066;29;20291;-77
2022/05/17 11:18:45;;;;;;;5.43;3.40;;;26.20;87.30;;;;;;4822887;29;20230;-77
2022/05/17 11:21:19;;;;;;;6.93;3.57;;;25.80;89.30;;;;;;4823046;29;20684;-79
2022/05/17 11:23:51;;;;;;;6.77;3.67;;;25.20;90.50;;;;;;4822674;29;20200;-75
2022/05/17 11:27:14;;;;;;;6.77;3.20;;;25.90;91.40;;;;;;4822536;29;20245;-74
2022/05/17 11:30:04;;;;;;;6.33;3.20;;;25.90;91.00;;;;;;4799026;29;20270;-76
2022/05/17 11:32:34;;;;;;;7.53;3.33;;;26.10;91.60;;;;;;4823288;29;20238;-76
2022/05/17 11:35:05;;;;;;;4.57;3.17;;;26.70;90.20;;;;;;4822885;29;20274;-79
2022/05/17 11:37:49;;;;;;;7.15;3.28;;;26.80;86.90;;;;;;4822931;29;20200;-77
2022/05/17 11:40:51;;;;;;;4.60;3.20;;;26.30;86.30;;;;;;4821973;29;20212;-75
2022/05/17 11:46:55;;;;;;;6.17;3.60;;;25.40;88.60;;;;;;4822633;29;20224;-77
2022/05/17 11:49:45;;;;;;;7.67;4.20;;;25.50;89.70;;;;;;4822438;29;20291;-77
2022/05/17 11:52:35;;;;;;;6.43;3.67;;;25.50;88.90;;;;;;4822154;29;20224;-77
2022/05/17 11:55:06;;;;;;;4.63;3.53;;;25.80;91.20;;;;;;4825950;29;20200;-74
2022/05/17 11:58:05;;;;;;;5.70;3.37;;;26.20;88.20;;;;;;4825936;29;20326;-77
2022/05/17 12:00:48;;;;;;;6.30;3.90;;;26.10;88.90;;;;;;4825871;29;20200;-74
2022/05/17 12:03:53;;;;;;;6.47;3.80;;;26.40;90.70;;;;;;4825767;29;20216;-77
2022/05/17 12:07:05;;;;;;;7.37;3.40;;;26.10;90.20;;;;;;4825868;29;20205;-75
2022/05/17 12:09:36;;;;;;;6.80;3.40;;;25.50;90.30;;;;;;4825229;29;20264;-77
2022/05/17 12:12:50;;;;;;;8.03;3.57;;;25.20;92.20;;;;;;4825884;29;20222;-76
2022/05/17 12:15:34;;;;;;;6.50;3.43;;;24.90;90.80;;;;;;4825599;29;20307;-76
2022/05/17 12:18:13;;;;;;;9.03;3.63;;;24.20;92.40;;;;;;4825188;29;20209;-76
2022/05/17 12:21:10;;;;;;;5.90;3.43;;;23.80;92.30;;;;;;4825024;29;20204;-76
2022/05/17 12:23:49;;;;;;;7.13;3.80;;;24.20;93.90;;;;;;4826771;29;20298;-75
2022/05/17 12:26:25;;;;;;;6.17;3.60;;;24.00;92.80;;;;;;4825388;29;20295;-76
2022/05/17 12:28:54;;;;;;;6.70;4.27;;;24.70;93.50;;;;;;4825173;29;20196;-76
2022/05/17 12:31:25;;;;;;;7.63;3.63;;;24.70;93.10;;;;;;4825317;29;20224;-76
2022/05/17 12:33:56;;;;;;;6.97;3.70;;;24.90;93.80;;;;;;4825273;29;20211;-75
2022/05/17 12:36:30;;;;;;;5.57;3.50;;;25.00;91.70;;;;;;4824786;29;20248;-76
2022/05/17 12:44:41;;;;;;;7.43;3.50;;;23.80;94.00;;;;;;4825096;29;20232;-77
2022/05/17 12:47:15;;;;;;;6.57;3.40;;;23.40;94.20;;;;;;4825134;29;20251;-78
2022/05/17 12:49:45;;;;;;;6.37;3.23;;;23.10;94.30;;;;;;4824742;29;20254;-76
2022/05/17 12:52:19;;;;;;;9.30;3.70;;;22.80;95.00;;;;;;4825598;29;20204;-76
2022/05/17 12:54:50;;;;;;;9.27;3.80;;;22.90;96.20;;;;;;4826117;29;20287;-74
2022/05/17 12:57:22;;;;;;;5.40;3.40;;;22.60;97.00;;;;;;4826306;29;20216;-76
2022/05/17 12:59:50;;;;;;;8.13;3.70;;;22.50;96.40;;;;;;4825258;29;20282;-76
2022/05/17 13:02:24;;;;;;;5.33;3.60;;;22.40;96.00;;;;;;4825388;29;20299;-75
2022/05/17 13:04:53;;;;;;;5.40;3.33;;;22.30;96.50;;;;;;4824886;29;20226;-75
2022/05/17 13:07:23;;;;;;;8.53;3.60;;;22.60;97.30;;;;;;4825491;29;20323;-73
2022/05/17 13:09:57;;;;;;;5.67;3.70;;;22.50;96.30;;;;;;4824348;29;20200;-74
2022/05/17 13:12:27;;;;;;;6.43;3.50;;;22.10;96.50;;;;;;4825279;29;20216;-77
2022/05/17 13:14:56;;;;;;;5.83;3.73;;;22.30;98.40;;;;;;4825729;29;20254;-73
2022/05/17 13:17:29;;;;;;;5.50;3.10;;;22.30;97.20;;;;;;4825432;29;20216;-75
2022/05/17 13:20:01;;;;;;;7.13;3.60;;;23.00;97.00;;;;;;4826359;29;20260;-77
2022/05/17 13:22:31;;;;;;;8.00;3.50;;;23.50;96.40;;;;;;4824796;29;20738;-76
2022/05/17 13:25:06;;;;;;;8.57;3.20;;;24.00;97.40;;;;;;4824893;29;20223;-75
2022/05/17 13:27:37;;;;;;;6.10;3.43;;;24.30;95.50;;;;;;4824577;29;20696;-76
2022/05/17 13:30:08;;;;;;;5.47;3.40;;;24.30;94.20;;;;;;4824846;29;20891;-78
2022/05/17 13:32:38;;;;;;;7.37;3.27;;;24.10;95.30;;;;;;4825035;29;20284;-77
2022/05/17 13:35:17;;;;;;;5.77;3.23;;;23.60;94.50;;;;;;4825261;29;20291;-76
2022/05/17 13:38:05;;;;;;;7.83;3.37;;;23.20;95.40;;;;;;4825167;29;20276;-78
2022/05/17 13:40:47;;;;;;;6.13;3.37;;;23.00;97.50;;;;;;4825043;29;20286;-76
2022/05/17 13:43:36;;;;;;;5.87;3.20;;;23.50;95.10;;;;;;4825044;29;20656;-77
2022/05/17 13:46:14;;;;;;;7.87;2.97;;;23.70;96.60;;;;;;4824680;29;20655;-74
2022/05/17 13:48:55;;;;;;;6.73;2.90;;;24.40;96.60;;;;;;4824791;29;20223;-74
2022/05/17 13:51:29;;;;;;;7.97;3.20;;;24.80;94.20;;;;;;4824931;29;20208;-74
2022/05/17 13:54:02;;;;;;;6.27;2.97;;;24.60;95.00;;;;;;4824624;29;20204;-75
2022/05/17 13:56:35;;;;;;;10.53;3.10;;;24.70;95.10;;;;;;4824476;29;20220;-75
2022/05/17 13:59:05;;;;;;;6.23;2.90;;;24.50;94.90;;;;;;4823691;29;20734;-75
2022/05/17 14:01:36;;;;;;;5.90;2.50;;;23.90;94.70;;;;;;4824063;29;20576;-77
2022/05/17 14:04:11;;;;;;;5.00;2.67;;;23.80;94.00;;;;;;4824175;29;20303;-76
2022/05/17 14:06:53;;;;;;;4.10;2.10;;;23.90;94.30;;;;;;4823922;29;20200;-74
2022/05/17 14:12:28;;;;;;;4.20;2.23;;;24.10;92.50;;;;;;4824417;29;20277;-75
2022/05/17 14:14:59;;;;;;;5.37;2.60;;;24.40;92.30;;;;;;4824076;29;20766;-76
2022/05/17 14:17:28;;;;;;;5.23;2.53;;;24.80;93.50;;;;;;4823589;29;20211;-75
2022/05/17 14:19:59;;;;;;;7.43;2.70;;;24.90;92.00;;;;;;4824485;29;20469;-76
2022/05/17 14:22:30;;;;;;;3.87;2.30;;;24.90;90.80;;;;;;4825709;29;20301;-76
2022/05/17 14:25:00;;;;;;;4.50;2.20;;;24.80;91.80;;;;;;4827703;29;20203;-77
2022/05/17 14:27:28;;;;;;;6.50;2.30;;;24.90;92.00;;;;;;4830128;29;20216;-74
2022/05/17 14:29:56;;;;;;;8.17;2.33;;;25.10;91.80;;;;;;4830369;29;20212;-76
2022/05/17 14:32:25;;;;;;;4.80;2.27;;;25.10;91.90;;;;;;4828282;29;20224;-77
2022/05/17 14:34:54;;;;;;;3.07;2.10;;;25.30;92.20;;;;;;4827623;29;20687;-73
2022/05/17 14:37:22;;;;;;;4.07;2.20;;;25.40;93.70;;;;;;4825469;29;20220;-74
2022/05/17 14:39:50;;;;;;;4.17;2.10;;;25.60;91.40;;;;;;4824594;29;20320;-73
2022/05/17 14:42:20;;;;;;;24.43;2.37;;;25.40;90.90;;;;;;4825311;29;20262;-74
2022/05/17 14:44:48;;;;;;;6.70;2.57;;;25.30;90.80;;;;;;4825684;29;20231;-74
2022/05/17 14:47:22;;;;;;;7.83;2.47;;;25.10;91.40;;;;;;4824345;29;20256;-76
2022/05/17 14:49:54;;;;;;;7.00;2.80;;;24.80;90.30;;;;;;4823604;29;20647;-76
2022/05/17 14:52:23;;;;;;;5.57;2.60;;;24.60;90.90;;;;;;4823377;29;20669;-76
2022/05/17 14:54:52;;;;;;;5.17;2.20;;;24.50;91.80;;;;;;4824393;29;20258;-77
2022/05/17 14:57:21;;;;;;;5.40;2.20;;;24.40;91.40;;;;;;4823139;29;20837;-75
2022/05/17 14:59:53;;;;;;;4.73;2.40;;;24.30;91.80;;;;;;4815443;29;20714;-75
2022/05/17 15:02:21;;;;;;;4.93;2.50;;;24.10;91.90;;;;;;4805308;29;20271;-75
2022/05/17 15:04:50;;;;;;;5.63;2.23;;;23.70;92.10;;;;;;4804879;29;20310;-76
2022/05/17 15:07:23;;;;;;;4.33;2.53;;;23.60;93.10;;;;;;4805024;29;20634;-76
2022/05/17 15:09:55;;;;;;;3.80;2.37;;;23.30;92.70;;;;;;4804826;29;20198;-78
2022/05/17 15:12:26;;;;;;;4.13;2.77;;;23.10;93.80;;;;;;4804579;29;20551;-76
2022/05/17 15:14:55;;;;;;;5.67;2.50;;;22.90;93.70;;;;;;4804262;29;20751;-77
2022/05/17 15:17:26;;;;;;;4.67;2.47;;;23.10;95.00;;;;;;4804829;29;20319;-74
2022/05/17 15:19:54;;;;;;;5.40;2.50;;;23.20;92.90;;;;;;4804382;29;20317;-75
2022/05/17 15:22:23;;;;;;;6.53;2.60;;;23.10;91.90;;;;;;4806846;29;20307;-75
2022/05/17 15:24:56;;;;;;;7.07;2.43;;;23.20;92.70;;;;;;4805176;29;20554;-74
2022/05/17 15:27:27;;;;;;;2.53;2.10;;;23.20;92.00;;;;;;4812445;29;20228;-75
2022/05/17 15:29:55;;;;;;;8.03;2.37;;;23.10;91.90;;;;;;4805707;29;20569;-77
2022/05/17 15:32:23;;;;;;;4.83;2.30;;;23.10;91.40;;;;;;4806474;29;20311;-76
2022/05/17 15:34:54;;;;;;;2.77;2.30;;;23.20;92.70;;;;;;4809602;29;20277;-77
2022/05/17 15:37:22;;;;;;;4.33;2.40;;;23.40;92.00;;;;;;4805112;29;20284;-77
2022/05/17 15:39:51;;;;;;;5.90;2.30;;;23.30;89.60;;;;;;4804445;29;20763;-73
2022/05/17 15:42:20;;;;;;;5.17;2.50;;;23.30;91.60;;;;;;4806521;29;20265;-76
2022/05/17 15:44:50;;;;;;;4.17;2.33;;;23.30;91.60;;;;;;4822957;29;20604;-76
2022/05/17 15:53:18;;;;;;;4.93;2.60;;;23.60;92.10;;;;;;4823582;29;20200;-76
2022/05/17 15:55:47;;;;;;;4.57;2.50;;;23.60;90.80;;;;;;4823152;29;20209;-76
2022/05/17 15:58:15;;;;;;;6.33;2.40;;;23.50;91.70;;;;;;4822422;29;20263;-78
2022/05/17 16:00:45;;;;;;;4.97;2.57;;;23.50;91.10;;;;;;4822423;29;20263;-78
2022/05/17 16:03:14;;;;;;;5.57;2.50;;;23.50;91.00;;;;;;4823017;29;20248;-77
2022/05/17 16:05:43;;;;;;;6.17;2.63;;;23.60;91.50;;;;;;4822680;29;20267;-75
2022/05/17 16:08:13;;;;;;;5.03;2.63;;;23.40;92.20;;;;;;4822994;29;20258;-74
2022/05/17 16:10:44;;;;;;;6.30;2.30;;;23.30;91.20;;;;;;4822655;29;20251;-76
2022/05/17 16:13:13;;;;;;;4.60;2.77;;;23.20;91.10;;;;;;4822723;29;20244;-77
2022/05/17 16:15:43;;;;;;;4.17;2.70;;;23.10;90.70;;;;;;4822322;29;20303;-76
2022/05/17 16:18:17;;;;;;;4.83;2.73;;;23.00;91.10;;;;;;4822293;29;20335;-75
2022/05/17 16:20:46;;;;;;;5.70;3.00;;;23.00;90.60;;;;;;4827931;29;20254;-77
2022/05/17 16:23:16;;;;;;;6.53;3.00;;;23.00;90.70;;;;;;4822299;29;20240;-74
2022/05/17 16:25:46;;;;;;;3.37;2.67;;;23.00;91.50;;;;;;4823186;29;20648;-77
2022/05/17 16:28:15;;;;;;;4.80;2.87;;;22.80;90.10;;;;;;4823011;29;20217;-76
2022/05/17 16:30:47;;;;;;;4.50;2.63;;;22.80;91.90;;;;;;4822807;29;20213;-76
2022/05/17 16:33:19;;;;;;;5.10;3.40;;;22.80;91.20;;;;;;4822526;29;20228;-78
2022/05/17 16:35:48;;;;;;;5.87;3.50;;;22.70;91.70;;;;;;4822205;29;20654;-76
2022/05/17 16:38:18;;;;;;;4.17;3.10;;;22.50;91.10;;;;;;4822572;29;20224;-77
2022/05/17 16:40:47;;;;;;;4.77;3.43;;;22.50;91.70;;;;;;4825525;29;20270;-76
2022/05/17 16:43:15;;;;;;;4.07;3.40;;;22.30;91.00;;;;;;4825686;29;20744;-75
2022/05/17 16:45:46;;;;;;;4.63;2.97;;;22.30;91.00;;;;;;4825860;29;20217;-76
2022/05/17 16:48:16;;;;;;;8.03;3.40;;;22.20;91.50;;;;;;4826084;29;20618;-78
2022/05/17 16:50:48;;;;;;;3.60;2.90;;;22.20;91.60;;;;;;4825399;29;20233;-77
2022/05/17 16:53:37;;;;;;;6.47;3.23;;;22.00;91.60;;;;;;4825485;29;20215;-78
2022/05/17 16:56:07;;;;;;;5.43;3.57;;;22.00;92.20;;;;;;4825585;29;20256;-76
2022/05/17 16:58:35;;;;;;;5.13;3.40;;;22.10;92.10;;;;;;4825053;29;20299;-77
2022/05/17 17:01:07;;;;;;;5.80;3.63;;;22.10;92.00;;;;;;4824960;29;20263;-77
2022/05/17 17:03:37;;;;;;;5.03;3.27;;;22.00;91.80;;;;;;4824999;29;20224;-77
2022/05/17 17:06:06;;;;;;;4.83;3.57;;;21.90;91.90;;;;;;4824528;29;20279;-77
2022/05/17 17:08:35;;;;;;;4.87;3.70;;;21.80;93.50;;;;;;4824213;29;20303;-76
2022/05/17 17:11:03;;;;;;;5.57;3.23;;;21.70;93.80;;;;;;4823342;29;20743;-76
2022/05/17 17:13:31;;;;;;;5.50;3.60;;;21.70;93.50;;;;;;4824689;29;20239;-77
2022/05/17 17:15:59;;;;;;;6.93;3.60;;;21.60;93.30;;;;;;4825227;29;20303;-76
2022/05/17 17:18:27;;;;;;;6.43;3.77;;;21.60;93.50;;;;;;4841039;29;20266;-77
2022/05/17 17:21:02;;;;;;;4.43;3.30;;;21.50;93.40;;;;;;4830108;29;20323;-75
2022/05/17 17:23:30;;;;;;;4.50;3.93;;;21.40;93.60;;;;;;4825457;29;20208;-77
2022/05/17 17:26:00;;;;;;;6.43;3.77;;;21.40;93.70;;;;;;4824986;29;20440;-75
2022/05/17 17:28:29;;;;;;;7.43;4.10;;;21.30;94.40;;;;;;4824922;29;20550;-75
2022/05/17 17:30:58;;;;;;;4.40;3.70;;;21.20;95.00;;;;;;4824402;29;20223;-76
2022/05/17 17:39:02;;;;;;;5.87;3.53;;;21.10;95.50;;;;;;4800989;29;20269;-76
2022/05/17 17:41:31;;;;;;;3.93;3.63;;;21.00;95.90;;;;;;4824218;29;20710;-75
2022/05/17 17:44:00;;;;;;;6.67;3.70;;;20.90;96.50;;;;;;4824676;29;20212;-74
2022/05/17 17:46:29;;;;;;;9.93;4.10;;;20.80;95.70;;;;;;4825363;29;20558;-77
2022/05/17 17:48:57;;;;;;;7.23;4.40;;;20.80;97.20;;;;;;4824410;29;20711;-78
2022/05/17 17:51:29;;;;;;;5.43;3.83;;;20.70;96.20;;;;;;4824963;29;20274;-75